Time;durP1;ratioP1;P1;durP2;ratioP2;P2;SDS_P1;SDS_P2;PMS_P1;PMS_P2;Temp;Humidity;BMP_temperature;BMP_pressure;BME280_temperature;BME280_humidity;BME280_pressure;Samples;Min_cycle;Max_cycle;Signal;HPM_P1;HPM_P2
2023/01/06 00:01:15;;;;;;;1.15;0.60;;;;;;;6.00;100.00;98342.71;1754934;80;21065;-78
2023/01/06 00:03:50;;;;;;;1.95;0.85;;;;;;;6.00;100.00;98345.95;1728160;82;21082;-77
2023/01/06 00:06:18;;;;;;;2.37;1.10;;;;;;;5.99;100.00;98348.38;1738045;81;21102;-78
2023/01/06 00:08:45;;;;;;;2.22;0.98;;;;;;;5.99;100.00;98359.99;1758369;81;21523;-78
2023/01/06 00:11:13;;;;;;;1.90;0.80;;;;;;;5.99;100.00;98355.13;1754695;80;21113;-78
2023/01/06 00:13:40;;;;;;;2.05;1.00;;;;;;;5.95;100.00;98352.17;1762825;80;21052;-78
2023/01/06 00:16:11;;;;;;;2.33;0.95;;;;;;;5.84;100.00;98349.23;1781309;80;21069;-78
2023/01/06 00:18:38;;;;;;;2.45;0.80;;;;;;;5.89;100.00;98362.73;1768529;80;21004;-78
2023/01/06 00:21:05;;;;;;;2.42;0.90;;;;;;;5.90;100.00;98356.79;1756511;80;21077;-77
2023/01/06 00:23:33;;;;;;;2.70;0.70;;;;;;;5.90;100.00;98368.41;1754542;80;21392;-78
2023/01/06 00:26:00;;;;;;;2.37;0.85;;;;;;;5.91;100.00;98371.38;1760859;80;21015;-77
2023/01/06 00:28:28;;;;;;;2.50;0.85;;;;;;;5.89;100.00;98360.56;1759175;80;21590;-78
2023/01/06 00:30:55;;;;;;;1.80;0.80;;;;;;;5.87;100.00;98363.56;1752391;80;21046;-78
2023/01/06 00:33:23;;;;;;;2.92;0.72;;;;;;;5.82;100.00;98368.92;1756354;80;20971;-77
2023/01/06 00:35:50;;;;;;;1.50;0.80;;;;;;;5.82;100.00;98370.81;1755140;80;21109;-77
2023/01/06 00:38:17;;;;;;;1.87;0.70;;;;;;;5.82;100.00;98374.33;1754679;81;21011;-77
2023/01/06 00:40:46;;;;;;;1.80;0.70;;;;;;;5.82;100.00;98378.37;1695213;83;21030;-77
2023/01/06 00:43:13;;;;;;;1.72;0.80;;;;;;;5.84;100.00;98375.42;1735024;82;21006;-78
2023/01/06 00:45:41;;;;;;;1.72;0.80;;;;;;;5.79;100.00;98374.88;1693072;83;21142;-77
2023/01/06 00:48:08;;;;;;;2.22;0.80;;;;;;;5.79;100.00;98390.27;1694405;83;22313;-78
2023/01/06 00:50:35;;;;;;;2.30;0.90;;;;;;;5.77;100.00;98387.05;1700464;83;22285;-78
2023/01/06 00:53:03;;;;;;;1.22;0.70;;;;;;;5.78;100.00;98388.11;1700427;83;20996;-77
2023/01/06 00:55:30;;;;;;;1.50;0.65;;;;;;;5.79;100.00;98394.31;1704359;83;21051;-77
2023/01/06 00:57:57;;;;;;;2.08;1.00;;;;;;;5.77;100.00;98402.71;1705601;84;21051;-77
2023/01/06 01:00:25;;;;;;;1.82;0.85;;;;;;;5.76;100.00;98397.57;1710520;82;21598;-79
2023/01/06 01:02:52;;;;;;;1.95;0.75;;;;;;;5.69;100.00;98394.34;1749359;80;21038;-78
2023/01/06 01:05:19;;;;;;;2.37;0.98;;;;;;;5.66;100.00;98402.45;1738365;82;21608;-77
2023/01/06 01:07:46;;;;;;;2.37;1.10;;;;;;;5.67;100.00;98405.97;1722164;83;20996;-78
2023/01/06 01:10:15;;;;;;;2.02;1.15;;;;;;;5.69;100.00;98405.95;1741858;82;21027;-78
2023/01/06 01:12:43;;;;;;;2.65;0.98;;;;;;;5.71;100.00;98401.62;1731624;80;21023;-78
2023/01/06 01:15:11;;;;;;;2.12;1.10;;;;;;;5.71;100.00;98409.18;1747976;81;21106;-77
2023/01/06 01:17:39;;;;;;;2.45;1.05;;;;;;;5.72;100.00;98420.80;1747863;82;21368;-77
2023/01/06 01:20:09;;;;;;;1.95;0.90;;;;;;;5.69;100.00;98426.74;1747931;82;21102;-78
2023/01/06 01:22:36;;;;;;;1.37;0.80;;;;;;;5.66;100.00;98425.41;1746678;80;20971;-78
2023/01/06 01:25:04;;;;;;;2.00;0.70;;;;;;;5.60;100.00;98415.66;1745345;80;21149;-77
2023/01/06 01:27:32;;;;;;;1.55;0.70;;;;;;;5.61;100.00;98424.58;1745153;82;21126;-77
2023/01/06 01:29:59;;;;;;;2.52;0.68;;;;;;;5.62;100.00;98427.55;1747908;80;21141;-77
2023/01/06 01:32:27;;;;;;;1.85;0.60;;;;;;;5.62;100.00;98430.25;1719303;82;21094;-77
2023/01/06 01:34:56;;;;;;;1.50;0.68;;;;;;;5.63;100.00;98434.59;1739217;80;21449;-77
2023/01/06 01:37:23;;;;;;;1.72;0.70;;;;;;;5.59;100.00;98435.67;1744094;80;21062;-76
2023/01/06 01:39:50;;;;;;;2.72;0.70;;;;;;;5.55;100.00;98437.28;1747662;82;21074;-79
2023/01/06 01:42:19;;;;;;;2.05;0.60;;;;;;;5.59;100.00;98444.30;1749141;80;21359;-78
2023/01/06 01:45:02;;;;;;;0.93;0.40;;;;;;;5.56;100.00;98452.95;1749925;80;21177;-78
2023/01/06 01:47:43;;;;;;;0.85;0.42;;;;;;;5.55;100.00;98456.18;1711452;82;21117;-76
2023/01/06 01:50:40;;;;;;;0.90;0.30;;;;;;;5.49;100.00;98459.40;1707969;82;21070;-77
2023/01/06 01:53:15;;;;;;;0.23;0.20;;;;;;;5.46;100.00;98467.23;1712794;82;21042;-76
2023/01/06 01:55:42;;;;;;;0.42;0.20;;;;;;;5.30;100.00;98482.61;1713325;82;21023;-78
2023/01/06 01:58:15;;;;;;;0.50;0.20;;;;;;;5.19;100.00;98486.36;1750205;80;21062;-77
2023/01/06 02:00:43;;;;;;;0.45;0.20;;;;;;;5.12;100.00;98493.91;1742942;82;20999;-77
2023/01/06 02:03:10;;;;;;;0.50;0.20;;;;;;;5.05;100.00;98495.23;1741145;82;21028;-77
2023/01/06 02:05:41;;;;;;;0.47;0.20;;;;;;;4.92;100.00;98504.08;1742430;80;21150;-78
2023/01/06 02:08:40;;;;;;;0.33;0.20;;;;;;;4.85;100.00;98512.17;1729821;80;21004;-77
2023/01/06 02:11:07;;;;;;;0.57;0.20;;;;;;;4.79;100.00;98511.86;1742883;81;21796;-77
2023/01/06 02:13:37;;;;;;;0.20;0.10;;;;;;;4.70;100.00;98522.89;1760028;80;22146;-80
2023/01/06 02:16:24;;;;;;;0.20;0.10;;;;;;;4.61;100.00;98537.92;1740631;80;21110;-78
2023/01/06 02:19:03;;;;;;;0.72;0.25;;;;;;;4.53;100.00;98537.91;1745998;81;21003;-78
2023/01/06 02:21:58;;;;;;;0.50;0.30;;;;;;;4.39;100.00;98547.53;1696323;80;21131;-77
2023/01/06 02:25:04;;;;;;;0.65;0.30;;;;;;;4.27;100.00;98543.67;1740495;82;21051;-77
2023/01/06 02:27:59;;;;;;;1.00;0.33;;;;;;;4.16;100.00;98549.25;1740495;80;21023;-76
2023/01/06 02:31:14;;;;;;;2.85;0.40;;;;;;;4.06;100.00;98555.91;1741774;81;21094;-76
2023/01/06 02:33:59;;;;;;;0.93;0.42;;;;;;;3.99;100.00;98564.21;1704510;82;22106;-76
2023/01/06 02:36:58;;;;;;;1.17;0.70;;;;;;;3.88;100.00;98571.39;1733074;80;21820;-77
2023/01/06 02:40:03;;;;;;;1.72;0.78;;;;;;;3.81;100.00;98586.95;1710212;82;21071;-78
2023/01/06 02:42:47;;;;;;;1.62;1.00;;;;;;;3.68;100.00;98593.28;1666050;84;21056;-78
2023/01/06 02:45:41;;;;;;;2.55;1.37;;;;;;;3.66;100.00;98596.75;1737314;82;21596;-78
2023/01/06 02:48:41;;;;;;;1.70;1.10;;;;;;;3.59;100.00;98601.52;1737736;80;21043;-78
2023/01/06 02:51:46;;;;;;;2.10;1.30;;;;;;;3.58;100.00;98609.34;1710138;82;21616;-78
2023/01/06 02:54:33;;;;;;;1.95;1.10;;;;;;;3.50;100.00;98617.33;1705519;84;21029;-77
2023/01/06 02:57:16;;;;;;;;;;;;;;;3.45;100.00;98619.42;1740929;80;21039;-78
2023/01/06 02:59:52;;;;;;;2.85;1.47;;;;;;;3.39;100.00;98633.89;1745177;80;20113;-77
2023/01/06 03:02:19;;;;;;;1.82;1.17;;;;;;;3.16;100.00;98636.01;1785456;80;21033;-78
2023/01/06 03:04:46;;;;;;;1.55;1.00;;;;;;;3.10;100.00;98653.97;1759038;80;21121;-75
2023/01/06 03:07:15;;;;;;;2.00;1.40;;;;;;;2.99;100.00;98647.65;1759278;80;21023;-76
2023/01/06 03:09:43;;;;;;;1.87;1.20;;;;;;;2.86;100.00;98653.39;1760131;80;21071;-77
2023/01/06 03:12:21;;;;;;;1.42;0.90;;;;;;;2.84;100.00;98667.59;1757528;80;21493;-76
2023/01/06 03:14:50;;;;;;;1.95;1.32;;;;;;;2.83;100.00;98674.58;1758080;81;21766;-76
2023/01/06 03:17:17;;;;;;;2.22;1.70;;;;;;;2.73;100.00;98681.95;1755535;80;21639;-76
2023/01/06 03:19:45;;;;;;;2.50;1.70;;;;;;;2.65;100.00;98701.72;1760118;80;21203;-76
2023/01/06 03:22:12;;;;;;;2.05;1.22;;;;;;;2.49;100.00;98706.02;1767602;80;20976;-77
2023/01/06 03:24:42;;;;;;;2.27;1.55;;;;;;;2.37;100.00;98708.78;1757945;81;21058;-76
2023/01/06 03:27:10;;;;;;;2.02;1.30;;;;;;;2.28;100.00;98714.81;1739980;80;21035;-74
2023/01/06 03:29:38;;;;;;;1.80;1.10;;;;;;;2.23;100.00;98715.53;1758265;80;21667;-76
2023/01/06 03:32:20;;;;;;;1.57;1.12;;;;;;;2.19;100.00;98718.44;1758390;81;21101;-75
2023/01/06 03:34:55;;;;;;;2.35;1.80;;;;;;;2.15;100.00;98723.19;1752688;80;21074;-76
2023/01/06 03:37:34;;;;;;;2.33;1.75;;;;;;;2.12;100.00;98732.55;1748120;80;21073;-75
2023/01/06 03:40:15;;;;;;;1.67;1.30;;;;;;;2.03;100.00;98729.95;1757028;80;21170;-76
2023/01/06 03:43:11;;;;;;;1.50;0.90;;;;;;;1.98;100.00;98736.03;1758292;81;21542;-77
2023/01/06 03:46:06;;;;;;;1.37;1.12;;;;;;;1.93;100.00;98732.45;1739626;81;21161;-77
2023/01/06 03:48:58;;;;;;;1.55;1.20;;;;;;;1.78;100.00;98757.64;1733254;80;21018;-78
2023/01/06 03:51:46;;;;;;;1.65;1.40;;;;;;;1.73;100.00;98763.75;1759980;80;21035;-77
2023/01/06 03:54:40;;;;;;;2.33;1.70;;;;;;;1.70;100.00;98772.80;1709674;83;21111;-77
2023/01/06 03:57:17;;;;;;;2.17;1.60;;;;;;;1.62;100.00;98785.23;1721536;83;21014;-78
2023/01/06 03:59:49;;;;;;;1.90;1.50;;;;;;;1.59;100.00;98801.29;1693381;83;21119;-76
2023/01/06 04:02:18;;;;;;;2.92;2.00;;;;;;;1.54;100.00;98805.19;1753393;80;21030;-79
2023/01/06 04:05:14;;;;;;;2.25;1.90;;;;;;;1.53;100.00;98813.46;1735057;82;21669;-76
2023/01/06 04:07:42;;;;;;;2.58;1.87;;;;;;;1.49;100.00;98815.80;1719812;82;20994;-77
2023/01/06 04:10:11;;;;;;;2.37;1.98;;;;;;;1.47;100.00;98818.73;1711512;84;21075;-77
2023/01/06 04:12:38;;;;;;;4.72;2.37;;;;;;;1.44;100.00;98822.41;1747862;80;21034;-77
2023/01/06 04:15:12;;;;;;;2.62;2.15;;;;;;;1.43;100.00;98822.93;1749873;81;21098;-78
2023/01/06 04:17:40;;;;;;;3.60;2.80;;;;;;;1.47;100.00;98832.66;1746989;80;21053;-77
2023/01/06 04:20:12;;;;;;;3.15;2.42;;;;;;;1.44;100.00;98837.98;1747978;80;21905;-77
2023/01/06 04:22:39;;;;;;;3.22;2.92;;;;;;;1.43;100.00;98847.06;1751961;80;21064;-76
2023/01/06 04:25:07;;;;;;;3.05;2.58;;;;;;;1.40;100.00;98852.08;1722826;81;21589;-77
2023/01/06 04:27:35;;;;;;;3.33;2.83;;;;;;;1.38;100.00;98861.69;1730018;82;20972;-77
2023/01/06 04:30:03;;;;;;;3.37;2.80;;;;;;;1.34;100.00;98866.44;1727564;82;21102;-77
2023/01/06 04:32:31;;;;;;;4.20;3.20;;;;;;;1.29;100.00;98868.47;1722799;81;21007;-76
2023/01/06 04:34:59;;;;;;;3.37;3.05;;;;;;;1.26;100.00;98889.05;1711427;84;21106;-75
2023/01/06 04:37:26;;;;;;;4.20;3.58;;;;;;;1.26;100.00;98887.70;1747058;80;21039;-76
2023/01/06 04:39:53;;;;;;;3.83;3.12;;;;;;;1.26;100.00;98889.56;1753400;81;21122;-76
2023/01/06 04:42:20;;;;;;;5.80;4.03;;;;;;;1.29;100.00;98886.41;1749138;80;21815;-76
2023/01/06 04:44:48;;;;;;;5.70;4.53;;;;;;;1.24;100.00;98902.40;1750618;80;23107;-75
2023/01/06 04:47:15;;;;;;;5.40;4.55;;;;;;;1.18;100.00;98910.83;1746801;81;21055;-76
2023/01/06 04:49:42;;;;;;;6.25;4.67;;;;;;;1.16;100.00;98920.98;1756129;81;21069;-75
2023/01/06 04:52:10;;;;;;;6.03;4.42;;;;;;;1.14;100.00;98924.39;1748097;80;21130;-76
2023/01/06 04:54:37;;;;;;;5.08;3.95;;;;;;;1.11;100.00;98928.88;1752368;80;21003;-77
2023/01/06 04:57:04;;;;;;;5.40;4.42;;;;;;;1.11;100.00;98944.14;1753413;80;21505;-76
2023/01/06 04:59:33;;;;;;;4.97;4.17;;;;;;;1.09;100.00;98957.79;1720901;82;21008;-75
2023/01/06 05:02:00;;;;;;;6.08;4.90;;;;;;;1.07;100.00;98957.19;1715201;82;21150;-76
2023/01/06 05:04:27;;;;;;;5.30;4.33;;;;;;;1.09;100.00;98975.22;1741621;80;21374;-76
2023/01/06 05:06:54;;;;;;;6.53;5.12;;;;;;;1.09;100.00;98981.91;1736190;81;21691;-76
2023/01/06 05:09:21;;;;;;;6.22;5.08;;;;;;;1.09;100.00;98989.14;1742270;80;21656;-77
2023/01/06 05:11:49;;;;;;;7.92;5.58;;;;;;;1.07;100.00;98998.73;1748400;80;21103;-76
2023/01/06 05:14:17;;;;;;;6.30;4.95;;;;;;;1.06;100.00;99005.16;1738716;81;21553;-77
2023/01/06 05:16:44;;;;;;;7.28;6.05;;;;;;;1.09;100.00;99007.38;1742499;80;21063;-76
2023/01/06 05:19:11;;;;;;;6.72;5.30;;;;;;;1.05;100.00;99004.03;1747757;81;21075;-76
2023/01/06 05:21:38;;;;;;;6.17;4.87;;;;;;;1.03;100.00;99009.61;1745853;81;21058;-78
2023/01/06 05:24:07;;;;;;;7.22;5.90;;;;;;;1.07;100.00;99016.67;1745174;81;21474;-76
2023/01/06 05:26:35;;;;;;;7.00;5.25;;;;;;;1.05;100.00;99008.88;1731620;80;21848;-76
2023/01/06 05:29:02;;;;;;;5.97;4.55;;;;;;;1.00;100.00;99025.63;1745895;80;21581;-76
2023/01/06 05:31:30;;;;;;;5.83;5.00;;;;;;;0.99;100.00;99032.58;1741795;81;21082;-77
2023/01/06 05:33:58;;;;;;;6.17;4.87;;;;;;;0.97;100.00;99040.02;1747492;81;20976;-77
2023/01/06 05:36:26;;;;;;;6.17;4.97;;;;;;;0.94;100.00;99047.98;1743648;80;21043;-76
2023/01/06 05:38:53;;;;;;;6.33;5.17;;;;;;;0.95;100.00;99054.99;1755620;80;20975;-76
2023/01/06 05:41:20;;;;;;;5.37;4.55;;;;;;;0.91;100.00;99060.50;1745211;80;21015;-77
2023/01/06 05:43:47;;;;;;;7.10;5.37;;;;;;;0.93;100.00;99076.34;1739660;82;21047;-77
2023/01/06 05:46:14;;;;;;;6.90;4.97;;;;;;;0.89;100.00;99084.02;1746923;81;21671;-77
2023/01/06 05:48:41;;;;;;;6.92;5.15;;;;;;;0.82;100.00;99087.81;1742545;80;21003;-77
2023/01/06 05:51:11;;;;;;;6.28;5.17;;;;;;;0.85;100.00;99087.39;1743143;80;21170;-77
2023/01/06 05:53:40;;;;;;;6.75;4.83;;;;;;;0.82;100.00;99095.33;1744295;80;21476;-78
2023/01/06 05:56:09;;;;;;;5.92;4.60;;;;;;;0.79;100.00;99102.48;1743230;82;21090;-77
2023/01/06 05:58:39;;;;;;;6.45;4.75;;;;;;;0.76;100.00;99102.11;1741053;80;21444;-77
2023/01/06 06:01:05;;;;;;;5.75;4.70;;;;;;;0.73;100.00;99103.91;1764211;80;20999;-78
2023/01/06 06:03:33;;;;;;;6.40;4.70;;;;;;;0.67;100.00;99111.50;1755484;81;20959;-77
2023/01/06 06:06:04;;;;;;;6.05;4.70;;;;;;;0.69;100.00;99108.06;1737401;80;21039;-77
2023/01/06 06:08:32;;;;;;;6.90;5.22;;;;;;;0.70;100.00;99121.25;1741617;80;21484;-78
2023/01/06 06:11:04;;;;;;;5.90;4.75;;;;;;;0.72;100.00;99125.03;1748172;80;21098;-77
2023/01/06 06:13:32;;;;;;;6.92;5.28;;;;;;;0.70;100.00;99131.97;1740086;81;21062;-77
2023/01/06 06:16:09;;;;;;;6.00;4.53;;;;;;;0.70;100.00;99138.66;1741417;80;21180;-77
2023/01/06 06:18:41;;;;;;;6.55;5.42;;;;;;;0.73;100.00;99141.41;1739016;82;21075;-77
2023/01/06 06:21:06;;;;;;;7.70;5.28;;;;;;;0.72;100.00;99153.16;1740956;80;21101;-77
2023/01/06 06:23:34;;;;;;;8.28;5.95;;;;;;;0.63;100.00;99158.52;1745215;80;20999;-77
2023/01/06 06:26:02;;;;;;;5.97;4.92;;;;;;;0.63;100.00;99159.34;1743231;80;21115;-77
2023/01/06 06:28:31;;;;;;;6.90;5.65;;;;;;;0.65;100.00;99169.82;1746120;80;21039;-77
2023/01/06 06:31:16;;;;;;;5.85;4.95;;;;;;;0.64;100.00;99185.07;1738599;80;21628;-76
2023/01/06 06:33:44;;;;;;;4.90;4.30;;;;;;;0.67;100.00;99193.20;1741346;81;21505;-77
2023/01/06 06:36:14;;;;;;;5.15;4.12;;;;;;;0.68;100.00;99196.98;1741640;80;21722;-77
2023/01/06 06:38:42;;;;;;;6.17;4.83;;;;;;;0.62;100.00;99201.07;1752472;81;21078;-77
2023/01/06 06:41:10;;;;;;;8.08;5.33;;;;;;;0.57;100.00;99209.77;1749347;80;21066;-77
2023/01/06 06:43:38;;;;;;;5.95;4.65;;;;;;;0.52;100.00;99214.97;1739790;80;21043;-77
2023/01/06 06:46:05;;;;;;;6.42;5.28;;;;;;;0.54;100.00;99218.23;1744712;80;21126;-78
2023/01/06 06:48:34;;;;;;;7.10;5.37;;;;;;;0.54;100.00;99229.47;1740500;80;21035;-77
2023/01/06 06:51:13;;;;;;;7.10;5.35;;;;;;;0.46;100.00;99236.73;1744969;80;21130;-78
2023/01/06 06:53:40;;;;;;;5.95;5.17;;;;;;;0.47;100.00;99249.09;1744179;80;21039;-78
2023/01/06 06:56:09;;;;;;;7.42;5.58;;;;;;;0.46;100.00;99247.45;1743256;81;21115;-78
2023/01/06 06:58:37;;;;;;;7.33;5.60;;;;;;;0.45;100.00;99256.55;1742487;82;21052;-79
2023/01/06 07:01:07;;;;;;;7.25;4.65;;;;;;;0.44;100.00;99259.42;1739639;80;21533;-77
2023/01/06 07:03:35;;;;;;;6.05;5.03;;;;;;;0.47;100.00;99271.86;1711545;82;21081;-77
2023/01/06 07:06:02;;;;;;;6.08;4.17;;;;;;;0.42;100.00;99277.58;1743788;81;21192;-78
2023/01/06 07:08:31;;;;;;;5.28;3.90;;;;;;;0.37;100.00;99286.77;1720849;81;21002;-79
2023/01/06 07:10:58;;;;;;;5.20;4.17;;;;;;;0.38;100.00;99284.41;1739127;81;21128;-78
2023/01/06 07:13:26;;;;;;;5.45;3.87;;;;;;;0.32;100.00;99294.11;1721965;81;20991;-78
2023/01/06 07:15:53;;;;;;;5.87;4.28;;;;;;;0.30;100.00;99311.44;1728013;81;21058;-77
2023/01/06 07:18:21;;;;;;;6.85;4.87;;;;;;;0.32;100.00;99311.51;1735210;82;21033;-79
2023/01/06 07:20:52;;;;;;;5.08;4.05;;;;;;;0.24;100.00;99325.69;1664924;83;21097;-78
2023/01/06 07:23:19;;;;;;;5.05;4.03;;;;;;;0.23;100.00;99340.09;1686387;83;22239;-78
2023/01/06 07:25:55;;;;;;;5.85;4.30;;;;;;;0.25;100.00;99348.20;1652620;86;21140;-78
2023/01/06 07:28:23;;;;;;;5.20;3.72;;;;;;;0.23;100.00;99348.13;1721646;82;21348;-78
2023/01/06 07:30:50;;;;;;;4.72;3.70;;;;;;;0.21;100.00;99362.26;1729108;82;21132;-79
2023/01/06 07:33:17;;;;;;;6.15;4.30;;;;;;;0.15;100.00;99371.95;1708650;82;21002;-78
2023/01/06 07:35:45;;;;;;;5.47;4.37;;;;;;;0.12;100.00;99375.05;1731117;81;21859;-77
2023/01/06 07:38:12;;;;;;;5.62;4.28;;;;;;;0.14;100.00;99374.86;1730465;81;21061;-78
2023/01/06 07:40:39;;;;;;;7.30;5.95;;;;;;;0.15;100.00;99381.83;1713054;82;21033;-79
2023/01/06 07:43:07;;;;;;;8.05;5.83;;;;;;;0.09;100.00;99387.53;1721492;81;21081;-80
2023/01/06 07:45:36;;;;;;;7.45;5.30;;;;;;;0.07;100.00;99397.64;1724130;82;21187;-78
2023/01/06 07:48:03;;;;;;;7.80;6.20;;;;;;;0.11;100.00;99400.17;1720457;82;21006;-79
2023/01/06 07:50:31;;;;;;;7.80;5.95;;;;;;;0.11;100.00;99403.39;1735907;81;21117;-78
2023/01/06 07:52:59;;;;;;;6.67;5.05;;;;;;;0.08;100.00;99407.29;1736006;81;20998;-79
2023/01/06 07:55:26;;;;;;;7.53;5.62;;;;;;;0.10;100.00;99424.48;1735824;82;21034;-79
2023/01/06 07:57:53;;;;;;;6.25;5.00;;;;;;;0.05;100.00;99427.80;1678978;83;21049;-78
2023/01/06 08:00:21;;;;;;;4.85;3.83;;;;;;;0.05;100.00;99433.14;1666078;85;21121;-79
2023/01/06 12:22:00;;;;;;;10.60;6.80;;;;;;;-3.38;100.00;99811.53;1803019;79;23637;-74
2023/01/06 12:24:28;;;;;;;7.83;5.40;;;;;;;-3.34;100.00;99811.50;1725792;81;21690;-76
2023/01/06 12:26:55;;;;;;;6.50;4.10;;;;;;;-3.11;100.00;99818.92;1717706;81;21125;-78
2023/01/06 12:29:24;;;;;;;5.33;3.90;;;;;;;-2.91;100.00;99827.22;1703160;83;21022;-76
2023/01/06 12:32:07;;;;;;;6.45;3.87;;;;;;;-2.78;100.00;99830.06;1695290;83;21187;-79
2023/01/06 12:34:38;;;;;;;5.15;3.08;;;;;;;-2.71;100.00;99836.30;1687371;83;21051;-76
2023/01/06 12:37:31;;;;;;;6.00;4.25;;;;;;;-2.60;100.00;99843.02;1675151;84;21141;-78
2023/01/06 12:40:30;;;;;;;5.35;3.27;;;;;;;-2.55;100.00;99848.63;1643098;85;21128;-75
2023/01/06 12:43:12;;;;;;;6.08;4.25;;;;;;;-2.48;100.00;99849.55;1639313;86;21165;-74
2023/01/06 12:46:03;;;;;;;6.95;4.08;;;;;;;-2.43;100.00;99852.96;1672990;84;21681;-76
2023/01/06 12:49:04;;;;;;;5.53;3.85;;;;;;;-2.36;100.00;99858.70;1656106;86;21926;-76
2023/01/06 12:51:45;;;;;;;7.60;4.97;;;;;;;-2.37;100.00;99872.23;1630678;85;21093;-76
2023/01/06 12:54:30;;;;;;;7.15;4.47;;;;;;;-2.33;100.00;99879.66;1663411;84;21758;-77
2023/01/06 13:11:41;;;;;;;7.58;4.95;;;;;;;-3.10;100.00;99910.29;1772206;79;22843;-70
2023/01/06 13:14:37;;;;;;;8.28;5.20;;;;;;;-3.11;100.00;99919.28;1750531;81;21404;-70
2023/01/06 13:17:18;;;;;;;7.53;5.12;;;;;;;-2.97;100.00;99917.16;1691167;84;21106;-70
2023/01/06 13:19:52;;;;;;;11.60;5.80;;;;;;;-2.84;100.00;99925.37;1676502;84;21083;-71
2023/01/06 13:22:52;;;;;;;8.98;5.25;;;;;;;-2.80;100.00;99929.31;1689522;84;21650;-69
2023/01/06 13:25:27;;;;;;;12.03;5.83;;;;;;;-2.76;100.00;99939.94;1679690;84;21102;-70
2023/01/06 13:28:12;;;;;;;10.08;6.75;;;;;;;-2.71;100.00;99938.06;1677193;84;21094;-70
2023/01/06 13:31:24;;;;;;;11.25;5.15;;;;;;;-2.66;100.00;99944.49;1684181;84;21101;-70
2023/01/06 13:34:09;;;;;;;7.90;4.60;;;;;;;-2.59;100.00;99953.95;1687808;84;21074;-69
2023/01/06 13:36:57;;;;;;;8.95;5.37;;;;;;;-2.60;100.00;99961.61;1677227;84;21106;-69
2023/01/06 13:39:33;;;;;;;7.15;4.40;;;;;;;-2.59;100.00;99966.77;1690716;84;21071;-69
2023/01/06 13:42:01;;;;;;;8.40;5.58;;;;;;;-2.64;100.00;99962.48;1671350;84;21637;-70
2023/01/06 13:44:30;;;;;;;6.87;4.90;;;;;;;-2.57;100.00;99958.58;1686626;84;21071;-67
2023/01/06 13:47:08;;;;;;;6.97;4.47;;;;;;;-2.62;100.00;99967.11;1662351;84;21634;-70
2023/01/06 13:49:36;;;;;;;7.00;4.20;;;;;;;-2.59;100.00;99972.61;1706573;82;21083;-68
2023/01/06 13:52:04;;;;;;;6.20;3.90;;;;;;;-2.63;100.00;99961.98;1661901;83;21482;-69
2023/01/06 13:54:46;;;;;;;7.05;4.90;;;;;;;-2.67;100.00;99966.01;1681387;84;21563;-68
2023/01/06 13:57:23;;;;;;;7.37;4.30;;;;;;;-2.75;100.00;99975.41;1716897;82;21143;-70
2023/01/06 14:00:06;;;;;;;7.87;5.55;;;;;;;-2.78;100.00;99975.27;1698495;83;21427;-70
2023/01/06 14:02:53;;;;;;;9.10;6.40;;;;;;;-2.80;100.00;99969.81;1697860;83;21992;-70
2023/01/06 14:05:30;;;;;;;7.00;5.03;;;;;;;-2.80;100.00;99977.80;1707988;82;21013;-70
2023/01/06 14:08:02;;;;;;;7.72;4.83;;;;;;;-2.85;100.00;99975.66;1712529;82;21072;-70
2023/01/06 14:10:38;;;;;;;7.25;5.00;;;;;;;-2.87;100.00;99982.19;1676965;83;21178;-69
2023/01/06 14:13:23;;;;;;;9.48;5.92;;;;;;;-2.92;100.00;99992.04;1669218;85;21008;-69
2023/01/06 14:15:56;;;;;;;8.55;5.50;;;;;;;-2.94;100.00;99986.05;1641790;85;21036;-70
2023/01/06 14:18:50;;;;;;;7.67;5.10;;;;;;;-2.97;100.00;99993.57;1665935;84;21048;-69
2023/01/06 14:21:25;;;;;;;6.42;4.40;;;;;;;-2.98;100.00;99999.42;1682275;85;21780;-69
2023/01/06 14:24:05;;;;;;;8.13;5.47;;;;;;;-3.00;100.00;100008.08;1657883;85;21008;-70
2023/01/06 14:26:59;;;;;;;5.47;3.98;;;;;;;-3.06;100.00;99998.98;1658858;84;21085;-69
2023/01/06 14:29:44;;;;;;;5.53;3.80;;;;;;;-3.06;100.00;99999.48;1660214;86;21050;-69
2023/01/06 14:32:23;;;;;;;6.00;3.95;;;;;;;-3.12;100.00;100000.20;1699011;83;21046;-70
2023/01/06 14:35:03;;;;;;;8.18;4.60;;;;;;;-3.17;100.00;99998.06;1700900;83;21069;-69
2023/01/06 14:37:56;;;;;;;6.20;4.05;;;;;;;-3.15;100.00;100004.52;1692779;83;21026;-69
2023/01/06 14:40:32;;;;;;;5.83;3.58;;;;;;;-3.16;100.00;100009.55;1718778;83;21049;-69
2023/01/06 14:43:01;;;;;;;6.10;3.83;;;;;;;-3.19;100.00;100004.05;1706944;83;20985;-69
2023/01/06 14:45:35;;;;;;;6.67;3.45;;;;;;;-3.19;100.00;100015.23;1694316;83;21060;-69
2023/01/06 14:48:09;;;;;;;5.22;3.22;;;;;;;-3.19;100.00;100021.88;1690272;85;21577;-69
2023/01/06 14:50:42;;;;;;;6.20;3.83;;;;;;;-3.23;100.00;100017.91;1687712;85;21017;-70
2023/01/06 14:53:31;;;;;;;6.95;4.00;;;;;;;-3.28;100.00;100023.75;1690579;83;20953;-69
2023/01/06 14:55:58;;;;;;;8.70;4.55;;;;;;;-3.25;100.00;100015.91;1694348;83;21096;-69
2023/01/06 14:58:38;;;;;;;6.22;3.62;;;;;;;-3.23;100.00;100033.89;1690266;85;21041;-70
2023/01/06 15:01:05;;;;;;;6.80;3.67;;;;;;;-3.25;100.00;100027.39;1690204;85;21076;-69
2023/01/06 15:03:33;;;;;;;6.78;4.22;;;;;;;-3.31;100.00;100024.61;1663902;83;20997;-69
2023/01/06 15:06:21;;;;;;;5.58;3.47;;;;;;;-3.29;100.00;100037.23;1708117;83;21045;-69
2023/01/06 15:08:49;;;;;;;5.00;3.27;;;;;;;-3.32;100.00;100049.06;1690406;85;20997;-69
2023/01/06 15:11:27;;;;;;;4.92;3.10;;;;;;;-3.38;100.00;100048.94;1708953;83;21066;-69
2023/01/06 15:13:53;;;;;;;;;;;;;;;-3.38;100.00;100060.42;1718138;82;20984;-69
2023/01/06 15:16:26;;;;;;;6.20;2.80;;;;;;;-3.45;100.00;100058.63;1741089;82;20142;-69
2023/01/06 15:18:53;;;;;;;5.17;2.72;;;;;;;-3.53;100.00;100062.16;1715378;83;21012;-71
2023/01/06 15:21:21;;;;;;;3.65;2.27;;;;;;;-3.58;100.00;100060.00;1715114;83;21118;-71
2023/01/06 15:23:50;;;;;;;5.20;3.27;;;;;;;-3.62;100.00;100065.37;1715484;83;20999;-72
2023/01/06 15:26:21;;;;;;;5.80;3.27;;;;;;;-3.63;100.00;100067.69;1737010;82;21103;-70
2023/01/06 15:29:02;;;;;;;4.78;3.17;;;;;;;-3.63;100.00;100076.17;1678245;83;21007;-70
2023/01/06 15:31:33;;;;;;;4.45;2.80;;;;;;;-3.61;100.00;100086.12;1715436;83;21055;-70
2023/01/06 15:34:04;;;;;;;5.70;3.40;;;;;;;-3.61;100.00;100076.31;1715418;83;20976;-71
2023/01/06 15:36:31;;;;;;;5.42;3.05;;;;;;;-3.59;100.00;100078.33;1730756;82;21095;-70
2023/01/06 15:39:01;;;;;;;5.58;3.30;;;;;;;-3.58;100.00;100079.16;1726378;82;21028;-71
2023/01/06 15:41:33;;;;;;;6.05;3.30;;;;;;;-3.59;100.00;100086.80;1714344;83;21075;-71
2023/01/06 15:44:00;;;;;;;5.62;2.90;;;;;;;-3.56;100.00;100093.94;1714576;83;21077;-70
2023/01/06 15:46:38;;;;;;;5.03;2.90;;;;;;;-3.55;100.00;100094.78;1714260;82;21087;-71
2023/01/06 15:49:18;;;;;;;5.37;3.30;;;;;;;-3.57;100.00;100109.57;1718163;82;21626;-70
2023/01/06 15:51:57;;;;;;;5.45;3.10;;;;;;;-3.61;100.00;100094.95;1713971;83;21617;-70
2023/01/06 15:54:25;;;;;;;6.00;3.62;;;;;;;-3.60;100.00;100113.91;1714099;83;21043;-70
2023/01/06 15:56:52;;;;;;;4.30;2.72;;;;;;;-3.64;100.00;100110.42;1714369;82;21605;-69
2023/01/06 15:59:19;;;;;;;4.67;2.77;;;;;;;-3.63;100.00;100110.27;1717857;82;20996;-70
2023/01/06 16:01:52;;;;;;;5.35;3.58;;;;;;;-3.60;100.00;100115.73;1714240;83;21078;-70
2023/01/06 20:18:35;;;;;;;4.55;2.58;;;;;;;-7.29;100.00;100326.14;1824451;77;23515;-70
2023/01/06 20:21:03;;;;;;;4.25;2.00;;;;;;;-7.16;100.00;100321.39;1796414;78;21543;-70
2023/01/06 20:23:30;;;;;;;4.53;1.80;;;;;;;-6.83;100.00;100326.12;1781104;78;21560;-69
2023/01/06 20:25:57;;;;;;;5.42;2.35;;;;;;;-6.63;100.00;100330.36;1786369;79;21018;-70
2023/01/06 20:28:25;;;;;;;4.05;1.98;;;;;;;-6.49;100.00;100330.84;1793207;78;21066;-70
2023/01/06 20:30:52;;;;;;;4.00;2.47;;;;;;;-6.32;100.00;100336.65;1792481;78;20951;-70
2023/01/06 20:33:19;;;;;;;4.72;2.20;;;;;;;-6.18;100.00;100333.48;1800524;78;21556;-70
2023/01/06 20:35:46;;;;;;;4.58;2.55;;;;;;;-6.11;100.00;100338.04;1787833;78;21058;-70
2023/01/06 20:38:13;;;;;;;3.98;2.17;;;;;;;-6.01;100.00;100339.28;1781738;79;21805;-70
2023/01/06 20:40:40;;;;;;;4.47;2.22;;;;;;;-5.89;100.00;100337.25;1797237;78;21050;-70
2023/01/06 20:43:09;;;;;;;3.80;2.22;;;;;;;-5.83;100.00;100341.41;1787977;79;21007;-70
2023/01/06 20:45:36;;;;;;;4.62;2.20;;;;;;;-5.83;100.00;100341.41;1788227;80;21944;-70